Time;durP1;ratioP1;P1;durP2;ratioP2;P2;SDS_P1;SDS_P2;PMS_P1;PMS_P2;Temp;Humidity;BMP_temperature;BMP_pressure;BME280_temperature;BME280_humidity;BME280_pressure;Samples;Min_cycle;Max_cycle;Signal;HPM_P1;HPM_P2
2022/08/29 00:01:28;;;;;;;7.38;3.08;;;17.00;99.90;;;;;;7396581;19;20555;-82
2022/08/29 00:03:56;;;;;;;7.38;3.47;;;17.00;99.90;;;;;;7398096;19;20081;-82
2022/08/29 00:06:22;;;;;;;8.00;3.38;;;17.00;99.90;;;;;;7395396;19;20050;-82
2022/08/29 00:08:48;;;;;;;7.60;3.22;;;17.00;99.90;;;;;;7397469;19;20090;-82
2022/08/29 00:11:14;;;;;;;8.13;3.38;;;17.00;99.90;;;;;;7394418;19;20519;-82
2022/08/29 00:13:40;;;;;;;5.78;2.97;;;17.00;99.90;;;;;;7397226;19;20079;-82
2022/08/29 00:16:06;;;;;;;10.15;3.15;;;17.10;99.90;;;;;;7397181;19;20028;-82
2022/08/29 00:18:33;;;;;;;9.25;3.30;;;17.10;99.90;;;;;;7394387;19;20022;-83
2022/08/29 00:20:59;;;;;;;5.30;3.03;;;17.10;99.90;;;;;;7395688;19;20018;-82
2022/08/29 00:23:25;;;;;;;9.80;3.13;;;17.10;99.90;;;;;;7395245;19;20039;-82
2022/08/29 00:25:51;;;;;;;10.15;3.30;;;17.10;99.90;;;;;;7394900;19;20513;-82
2022/08/29 00:28:17;;;;;;;7.35;3.25;;;17.00;99.90;;;;;;7392100;19;20042;-82
2022/08/29 00:30:43;;;;;;;7.75;2.90;;;17.10;99.90;;;;;;7394697;19;20376;-82
2022/08/29 00:33:09;;;;;;;8.05;3.38;;;17.00;99.90;;;;;;7397651;19;20042;-82
2022/08/29 00:35:37;;;;;;;9.70;3.45;;;17.10;99.90;;;;;;7394747;19;20014;-82
2022/08/29 00:38:05;;;;;;;8.63;3.20;;;17.00;99.90;;;;;;7396529;19;20022;-82
2022/08/29 00:40:39;;;;;;;7.07;3.35;;;17.00;99.90;;;;;;7393414;19;20432;-82
2022/08/29 00:43:06;;;;;;;9.40;3.63;;;17.00;99.90;;;;;;7395026;19;20014;-82
2022/08/29 00:45:33;;;;;;;9.05;3.30;;;17.00;99.90;;;;;;7391969;19;20487;-82
2022/08/29 00:48:10;;;;;;;9.77;3.00;;;17.00;99.90;;;;;;7391840;19;20103;-82
2022/08/29 00:50:42;;;;;;;7.10;3.05;;;17.00;99.90;;;;;;7393627;19;20015;-82
2022/08/29 00:53:11;;;;;;;8.05;3.38;;;17.00;99.90;;;;;;7396133;19;20090;-82
2022/08/29 00:55:39;;;;;;;9.35;3.17;;;17.00;99.90;;;;;;7391226;19;20007;-82
2022/08/29 00:58:10;;;;;;;7.35;2.92;;;17.00;99.90;;;;;;7394781;19;20011;-82
2022/08/29 01:00:37;;;;;;;8.88;3.67;;;17.00;99.90;;;;;;7394602;19;20459;-82
2022/08/29 01:03:04;;;;;;;7.72;3.00;;;17.00;99.90;;;;;;7395174;19;20110;-82
2022/08/29 01:05:31;;;;;;;6.40;3.10;;;17.00;99.90;;;;;;7395123;19;20014;-82
2022/08/29 01:07:58;;;;;;;8.23;3.30;;;17.00;99.90;;;;;;7395032;19;20006;-82
2022/08/29 01:13:09;;;;;;;9.55;3.58;;;16.90;99.90;;;;;;7392628;19;20370;-82
2022/08/29 01:15:36;;;;;;;7.10;3.08;;;16.90;99.90;;;;;;7393184;19;20014;-82
2022/08/29 01:18:04;;;;;;;7.32;3.20;;;16.90;99.90;;;;;;7394525;19;20042;-83
2022/08/29 01:20:43;;;;;;;8.38;2.75;;;16.90;99.90;;;;;;7389170;19;20023;-82
2022/08/29 01:23:19;;;;;;;14.25;4.40;;;17.00;99.90;;;;;;7393427;19;20014;-82
2022/08/29 01:25:47;;;;;;;12.10;3.45;;;17.00;99.90;;;;;;7390491;19;20052;-82
2022/08/29 01:28:24;;;;;;;10.82;3.05;;;17.00;99.90;;;;;;7392874;19;20014;-82
2022/08/29 01:31:05;;;;;;;9.32;3.10;;;17.00;99.90;;;;;;7391208;19;20018;-82
2022/08/29 01:33:45;;;;;;;9.10;3.13;;;17.00;99.90;;;;;;7394067;19;20011;-82
2022/08/29 01:36:14;;;;;;;8.27;2.88;;;17.00;99.90;;;;;;7391110;19;20018;-82
2022/08/29 01:38:41;;;;;;;9.73;3.10;;;17.00;99.90;;;;;;7392453;19;20013;-82
2022/08/29 01:41:09;;;;;;;9.38;3.03;;;17.00;99.90;;;;;;7390680;19;20022;-82
2022/08/29 01:43:41;;;;;;;9.20;3.13;;;17.00;99.90;;;;;;7393535;19;20483;-82
2022/08/29 01:46:10;;;;;;;8.88;3.00;;;16.90;99.90;;;;;;7391312;19;20023;-82
2022/08/29 01:48:41;;;;;;;8.45;2.92;;;17.00;99.90;;;;;;7387975;19;20388;-82
2022/08/29 01:51:08;;;;;;;9.88;3.20;;;17.00;99.90;;;;;;7392470;19;20094;-82
2022/08/29 01:53:34;;;;;;;6.72;2.83;;;17.00;99.90;;;;;;7391688;19;20014;-83
2022/08/29 01:56:09;;;;;;;7.72;2.67;;;17.00;99.90;;;;;;7396490;19;20022;-82
2022/08/29 01:58:34;;;;;;;7.55;3.10;;;17.00;99.90;;;;;;7399842;19;20019;-82
2022/08/29 02:01:00;;;;;;;7.35;2.55;;;17.00;99.90;;;;;;7398173;19;20070;-82
2022/08/29 02:03:26;;;;;;;12.68;2.80;;;17.00;99.90;;;;;;7400706;19;20025;-82
2022/08/29 02:05:55;;;;;;;7.22;2.80;;;17.00;99.90;;;;;;7397223;19;20017;-82
2022/08/29 02:08:21;;;;;;;6.85;2.40;;;16.90;99.90;;;;;;7398104;19;20026;-82
2022/08/29 02:10:47;;;;;;;8.57;2.80;;;16.90;99.90;;;;;;7398997;19;20377;-82
2022/08/29 02:13:13;;;;;;;8.98;2.92;;;16.90;99.90;;;;;;7400725;19;20018;-82
2022/08/29 02:15:39;;;;;;;9.35;2.83;;;16.90;99.90;;;;;;7398875;19;20400;-82
2022/08/29 02:18:05;;;;;;;9.30;3.00;;;16.90;99.90;;;;;;7397032;19;20015;-82
2022/08/29 02:20:31;;;;;;;6.28;2.75;;;16.90;99.90;;;;;;7395076;19;20474;-82
2022/08/29 02:22:58;;;;;;;7.63;2.50;;;16.80;99.90;;;;;;7399185;19;20360;-82
2022/08/29 02:25:42;;;;;;;7.82;2.75;;;16.80;99.90;;;;;;7400362;19;20015;-82
2022/08/29 02:28:13;;;;;;;13.18;2.97;;;16.90;99.90;;;;;;7397336;19;20040;-82
2022/08/29 02:30:42;;;;;;;8.85;2.53;;;16.90;99.90;;;;;;7398475;19;20026;-82
2022/08/29 02:33:08;;;;;;;6.65;2.65;;;16.80;99.90;;;;;;7398107;19;20033;-83
2022/08/29 02:35:35;;;;;;;10.00;3.00;;;16.80;99.90;;;;;;7397387;19;20031;-82
2022/08/29 02:38:02;;;;;;;8.65;2.15;;;16.80;99.90;;;;;;7400479;19;20376;-82
2022/08/29 02:40:28;;;;;;;10.60;2.92;;;16.80;99.90;;;;;;7398696;19;20021;-82
2022/08/29 02:42:54;;;;;;;7.60;2.70;;;16.80;99.90;;;;;;7399405;19;20479;-82
2022/08/29 02:45:21;;;;;;;11.65;2.72;;;16.80;99.90;;;;;;7400341;19;20014;-82
2022/08/29 02:47:47;;;;;;;8.77;2.50;;;16.80;99.90;;;;;;7396853;19;20015;-83
2022/08/29 02:50:13;;;;;;;8.30;2.63;;;16.80;99.90;;;;;;7399851;19;20476;-83
2022/08/29 02:52:40;;;;;;;7.97;2.53;;;16.80;99.90;;;;;;7397065;19;20018;-82
2022/08/29 02:55:09;;;;;;;8.88;2.55;;;16.80;99.90;;;;;;7400186;19;20483;-82
2022/08/29 02:57:35;;;;;;;8.13;2.47;;;16.80;99.90;;;;;;7395653;19;20380;-82
2022/08/29 03:00:03;;;;;;;9.88;2.83;;;16.80;99.90;;;;;;7400053;19;20015;-82
2022/08/29 03:02:29;;;;;;;7.82;2.38;;;16.80;99.90;;;;;;7397130;19;20015;-82
2022/08/29 03:04:54;;;;;;;6.05;2.58;;;16.80;99.90;;;;;;7397412;19;20018;-82
2022/08/29 03:07:21;;;;;;;10.52;2.67;;;16.80;99.90;;;;;;7396680;19;20488;-82
2022/08/29 03:09:47;;;;;;;9.27;2.40;;;16.80;99.90;;;;;;7397683;19;20025;-82
2022/08/29 03:12:13;;;;;;;8.88;2.20;;;16.80;99.90;;;;;;7399221;19;20109;-83
2022/08/29 03:14:39;;;;;;;6.47;2.28;;;16.70;99.90;;;;;;7400079;19;20019;-82
2022/08/29 03:17:04;;;;;;;8.38;2.45;;;16.70;99.90;;;;;;7398422;19;20081;-82
2022/08/29 03:19:30;;;;;;;12.52;3.03;;;16.70;99.90;;;;;;7394388;19;20026;-83
2022/08/29 03:21:56;;;;;;;6.32;2.38;;;16.70;99.90;;;;;;7394381;19;20370;-82
2022/08/29 03:24:22;;;;;;;10.20;3.17;;;16.70;99.90;;;;;;7396147;19;20376;-83
2022/08/29 03:26:48;;;;;;;12.27;3.03;;;16.70;99.90;;;;;;7394709;19;20028;-83
2022/08/29 03:29:14;;;;;;;10.32;2.80;;;16.60;99.90;;;;;;7393289;19;20018;-82
2022/08/29 03:31:39;;;;;;;10.43;2.70;;;16.70;99.90;;;;;;7397539;19;20416;-82
2022/08/29 03:34:05;;;;;;;9.98;3.00;;;16.70;99.90;;;;;;7397090;19;20057;-82
2022/08/29 03:36:31;;;;;;;12.00;2.70;;;16.60;99.90;;;;;;7394511;19;20042;-82
2022/08/29 03:38:57;;;;;;;8.30;3.00;;;16.70;99.90;;;;;;7396338;19;20040;-82
2022/08/29 03:41:26;;;;;;;11.57;3.05;;;16.70;99.90;;;;;;7395768;19;20014;-82
2022/08/29 03:43:54;;;;;;;11.05;3.13;;;16.70;99.90;;;;;;7398102;19;20070;-83
2022/08/29 03:46:21;;;;;;;8.77;2.97;;;16.70;99.90;;;;;;7397117;19;20033;-82
2022/08/29 03:48:47;;;;;;;10.02;2.80;;;16.70;99.90;;;;;;7395232;19;20029;-83
2022/08/29 03:51:14;;;;;;;10.68;2.95;;;16.70;99.90;;;;;;7394944;19;20014;-83
2022/08/29 03:53:40;;;;;;;9.02;2.85;;;16.70;99.90;;;;;;7394686;19;20014;-83
2022/08/29 03:56:06;;;;;;;12.35;2.78;;;16.80;99.90;;;;;;7397998;19;20022;-83
2022/08/29 03:58:33;;;;;;;11.13;3.00;;;16.80;99.90;;;;;;7397360;19;20041;-82
2022/08/29 04:00:59;;;;;;;10.60;2.65;;;16.70;99.90;;;;;;7396565;19;20014;-83
2022/08/29 04:03:26;;;;;;;8.93;2.95;;;16.80;99.90;;;;;;7396213;19;20023;-83
2022/08/29 04:05:52;;;;;;;7.50;2.70;;;16.80;99.90;;;;;;7395448;19;20036;-83
2022/08/29 04:08:18;;;;;;;8.88;2.63;;;16.80;99.90;;;;;;7394774;19;20100;-82
2022/08/29 04:10:44;;;;;;;7.30;3.00;;;16.90;99.90;;;;;;7392773;19;20018;-82
2022/08/29 04:13:11;;;;;;;7.72;2.60;;;16.80;99.90;;;;;;7398298;19;20086;-83
2022/08/29 04:15:40;;;;;;;6.50;2.53;;;16.90;99.90;;;;;;7394047;19;20011;-83
2022/08/29 04:18:08;;;;;;;8.82;2.70;;;16.90;99.90;;;;;;7394448;19;20070;-83
2022/08/29 04:20:37;;;;;;;9.30;2.70;;;16.90;99.90;;;;;;7395290;19;20010;-82
2022/08/29 04:23:04;;;;;;;7.40;2.78;;;16.90;99.90;;;;;;7395664;19;20019;-82
2022/08/29 04:25:35;;;;;;;9.43;2.80;;;16.90;99.90;;;;;;7393987;19;20026;-82
2022/08/29 04:28:06;;;;;;;9.05;2.90;;;16.90;99.90;;;;;;7396036;19;20015;-83
2022/08/29 04:30:33;;;;;;;8.38;2.95;;;17.00;99.90;;;;;;7396168;19;20018;-82
2022/08/29 04:32:59;;;;;;;10.30;2.78;;;17.00;99.90;;;;;;7394778;19;20011;-83
2022/08/29 04:35:24;;;;;;;9.70;2.65;;;16.90;99.90;;;;;;7393508;19;20022;-82
2022/08/29 04:37:50;;;;;;;9.32;3.15;;;16.90;99.90;;;;;;7395545;19;20021;-82
2022/08/29 04:40:19;;;;;;;9.05;3.03;;;16.90;99.90;;;;;;7393890;19;20010;-82
2022/08/29 04:42:48;;;;;;;11.88;2.90;;;16.90;99.90;;;;;;7395973;19;20014;-82
2022/08/29 04:45:17;;;;;;;12.35;2.88;;;16.90;99.90;;;;;;7394424;19;20014;-82
2022/08/29 04:47:44;;;;;;;7.93;2.92;;;16.90;99.90;;;;;;7397658;19;20011;-83
2022/08/29 04:50:14;;;;;;;11.18;3.38;;;16.90;99.90;;;;;;7393847;19;20015;-82
2022/08/29 04:52:42;;;;;;;13.90;3.88;;;16.80;99.90;;;;;;7393836;19;20025;-83
2022/08/29 04:55:10;;;;;;;12.05;3.72;;;16.80;99.90;;;;;;7392990;19;20416;-82
2022/08/29 04:57:37;;;;;;;11.32;3.42;;;16.80;99.90;;;;;;7396611;19;20011;-82
2022/08/29 05:00:11;;;;;;;12.25;3.47;;;16.80;99.90;;;;;;7395067;19;20021;-82
2022/08/29 05:02:37;;;;;;;11.02;3.30;;;16.80;99.90;;;;;;7394144;19;20016;-82
2022/08/29 05:05:03;;;;;;;10.32;3.53;;;16.90;99.90;;;;;;7394928;19;20448;-83
2022/08/29 05:07:29;;;;;;;8.90;2.80;;;16.90;99.90;;;;;;7396179;19;20045;-82
2022/08/29 05:09:59;;;;;;;8.93;3.13;;;16.90;99.90;;;;;;7396317;19;20014;-82
2022/08/29 05:12:30;;;;;;;9.63;3.30;;;16.90;99.90;;;;;;7394034;19;20017;-82
2022/08/29 05:14:56;;;;;;;9.40;3.30;;;16.90;99.90;;;;;;7392884;19;20038;-82
2022/08/29 05:17:23;;;;;;;9.30;3.00;;;17.00;99.90;;;;;;7393338;19;20018;-83
2022/08/29 05:19:49;;;;;;;10.55;3.30;;;16.90;99.90;;;;;;7394085;19;20018;-82
2022/08/29 05:22:16;;;;;;;10.75;3.75;;;17.00;99.90;;;;;;7397961;19;20102;-82
2022/08/29 05:24:43;;;;;;;13.50;3.50;;;17.00;99.90;;;;;;7391463;19;20007;-83
2022/08/29 05:27:11;;;;;;;10.02;3.40;;;17.00;99.90;;;;;;7392421;19;20014;-83
2022/08/29 05:29:42;;;;;;;10.25;3.72;;;17.00;99.90;;;;;;7395520;19;20493;-82
2022/08/29 05:32:10;;;;;;;12.43;3.38;;;17.10;99.90;;;;;;7407597;19;20022;-82
2022/08/29 05:34:37;;;;;;;10.45;3.50;;;17.10;99.90;;;;;;7406400;19;20486;-83
2022/08/29 05:37:06;;;;;;;17.33;3.85;;;17.10;99.90;;;;;;7407589;19;20403;-82
2022/08/29 05:39:33;;;;;;;12.43;4.07;;;17.10;99.90;;;;;;7404382;19;20023;-82
2022/08/29 05:42:00;;;;;;;11.27;3.42;;;17.10;99.90;;;;;;7406635;19;20092;-83
2022/08/29 05:44:28;;;;;;;14.80;4.55;;;17.10;99.90;;;;;;7404283;19;20357;-82
2022/08/29 05:46:54;;;;;;;10.38;4.68;;;17.20;99.90;;;;;;7407791;19;20021;-83
2022/08/29 05:49:20;;;;;;;11.98;3.95;;;17.20;99.90;;;;;;7405132;19;20010;-83
2022/08/29 05:51:47;;;;;;;12.55;3.80;;;17.30;99.90;;;;;;7405775;19;20014;-83
2022/08/29 05:54:13;;;;;;;12.00;3.30;;;17.40;99.90;;;;;;7408674;19;20018;-83
2022/08/29 05:56:39;;;;;;;10.35;3.63;;;17.40;99.90;;;;;;7406455;19;20018;-83
2022/08/29 05:59:05;;;;;;;12.80;4.63;;;17.50;99.90;;;;;;7405069;19;20010;-82
2022/08/29 06:01:32;;;;;;;13.23;3.58;;;17.60;99.90;;;;;;7407225;19;20018;-83
2022/08/29 06:03:59;;;;;;;7.43;2.80;;;17.60;99.90;;;;;;7407162;19;20018;-83
2022/08/29 06:06:27;;;;;;;12.55;3.70;;;17.60;99.90;;;;;;7407740;19;20045;-82
2022/08/29 06:08:54;;;;;;;9.18;3.20;;;17.70;99.90;;;;;;7403096;19;20523;-82
2022/08/29 06:11:28;;;;;;;10.25;3.30;;;17.60;99.90;;;;;;7409375;19;20021;-83
2022/08/29 06:13:54;;;;;;;7.90;3.03;;;17.70;99.90;;;;;;7409453;19;20014;-82
2022/08/29 06:16:22;;;;;;;9.75;3.22;;;17.70;99.90;;;;;;7407601;19;20030;-83
2022/08/29 06:18:49;;;;;;;10.30;3.70;;;17.70;99.90;;;;;;7404964;19;20018;-83
2022/08/29 06:21:16;;;;;;;10.40;3.60;;;17.70;99.90;;;;;;7408823;19;20022;-83
2022/08/29 06:23:43;;;;;;;11.02;3.47;;;17.70;99.90;;;;;;7406473;19;20113;-82
2022/08/29 06:26:10;;;;;;;11.23;2.97;;;17.80;99.90;;;;;;7404583;19;20098;-82
2022/08/29 06:28:40;;;;;;;11.50;3.42;;;17.80;99.90;;;;;;7405466;19;20018;-82
2022/08/29 06:31:08;;;;;;;11.70;4.00;;;17.80;99.90;;;;;;7403699;19;20341;-82
2022/08/29 06:33:34;;;;;;;15.95;4.13;;;17.80;99.90;;;;;;7406096;19;20345;-82
2022/08/29 06:36:01;;;;;;;15.07;3.80;;;18.00;99.90;;;;;;7404817;19;20019;-82
2022/08/29 06:38:27;;;;;;;16.83;4.05;;;18.10;99.90;;;;;;7405629;19;20018;-82
2022/08/29 06:40:53;;;;;;;13.93;4.40;;;18.20;99.90;;;;;;7402934;19;20419;-83
2022/08/29 06:43:19;;;;;;;12.55;3.33;;;18.30;99.90;;;;;;7396455;19;20365;-82
2022/08/29 06:45:45;;;;;;;17.80;4.45;;;18.40;99.90;;;;;;7396881;19;20038;-82
2022/08/29 06:48:10;;;;;;;10.75;3.85;;;18.50;99.90;;;;;;7397520;19;20014;-82
2022/08/29 06:50:38;;;;;;;15.38;3.92;;;18.50;99.90;;;;;;7397371;19;20010;-82
2022/08/29 06:53:06;;;;;;;16.30;4.57;;;18.60;99.90;;;;;;7397792;19;20021;-82
2022/08/29 06:55:36;;;;;;;9.13;3.30;;;18.70;99.90;;;;;;7396973;19;20015;-83
2022/08/29 06:58:03;;;;;;;15.98;4.90;;;18.90;99.90;;;;;;7398234;19;20018;-82
2022/08/29 07:00:29;;;;;;;13.40;4.47;;;19.00;99.90;;;;;;7398221;19;20029;-82
2022/08/29 07:02:55;;;;;;;15.80;4.90;;;19.30;99.90;;;;;;7396746;19;20010;-82
2022/08/29 07:05:22;;;;;;;18.38;4.35;;;19.50;99.90;;;;;;7396634;19;20022;-82
2022/08/29 07:07:49;;;;;;;19.25;4.32;;;19.60;99.90;;;;;;7396651;19;20030;-82
2022/08/29 07:10:16;;;;;;;14.82;4.45;;;20.00;99.90;;;;;;7398291;19;20015;-83
2022/08/29 07:12:43;;;;;;;16.40;5.10;;;20.20;99.90;;;;;;7399788;19;20032;-82
2022/08/29 07:15:09;;;;;;;18.98;4.43;;;20.30;99.90;;;;;;7397252;19;20026;-82
2022/08/29 07:17:35;;;;;;;17.67;4.38;;;20.30;99.90;;;;;;7395360;19;20014;-82
2022/08/29 07:20:01;;;;;;;14.52;4.45;;;20.30;99.90;;;;;;7393864;19;20034;-83
2022/08/29 07:22:27;;;;;;;14.75;4.75;;;20.30;99.90;;;;;;7396711;19;20045;-82
2022/08/29 07:24:54;;;;;;;16.40;4.53;;;20.30;99.90;;;;;;7395878;19;20689;-82
2022/08/29 07:27:21;;;;;;;13.65;4.05;;;20.30;99.90;;;;;;7396103;19;20014;-82
2022/08/29 07:29:47;;;;;;;19.08;4.40;;;20.40;99.90;;;;;;7398191;19;20015;-82
2022/08/29 07:32:13;;;;;;;18.67;4.25;;;20.50;99.90;;;;;;7394054;19;20013;-83
2022/08/29 07:34:39;;;;;;;17.98;4.35;;;20.50;99.90;;;;;;7396282;19;20430;-82
2022/08/29 07:37:05;;;;;;;15.15;3.88;;;20.60;99.90;;;;;;7393865;19;20503;-82
2022/08/29 07:39:31;;;;;;;13.90;3.90;;;20.60;99.90;;;;;;7392309;19;20533;-82
2022/08/29 07:41:58;;;;;;;13.85;3.90;;;20.50;99.90;;;;;;7393391;19;20446;-82
2022/08/29 07:44:25;;;;;;;14.43;4.07;;;20.50;99.90;;;;;;7395333;19;20579;-83
2022/08/29 07:46:59;;;;;;;16.00;4.43;;;20.40;99.90;;;;;;7396903;19;20336;-82
2022/08/29 07:49:26;;;;;;;18.00;4.35;;;20.40;99.90;;;;;;7394079;19;20459;-83
2022/08/29 07:51:54;;;;;;;14.90;4.03;;;20.40;99.90;;;;;;7396737;19;20078;-83
2022/08/29 07:54:20;;;;;;;16.42;4.25;;;20.40;99.90;;;;;;7393658;19;20010;-82
2022/08/29 07:56:49;;;;;;;10.95;3.55;;;20.40;99.90;;;;;;7395002;19;20021;-82
2022/08/29 07:59:17;;;;;;;14.10;3.95;;;20.50;99.90;;;;;;7394508;19;20041;-82
2022/08/29 08:01:43;;;;;;;12.85;4.25;;;20.50;99.90;;;;;;7399521;19;20024;-82
2022/08/29 08:04:09;;;;;;;13.30;4.20;;;20.40;99.90;;;;;;7398759;19;20018;-83
2022/08/29 08:06:39;;;;;;;14.32;4.10;;;20.30;99.90;;;;;;7399125;19;20011;-83
2022/08/29 08:09:06;;;;;;;14.00;4.07;;;20.40;99.90;;;;;;7394516;19;20487;-82
2022/08/29 08:11:34;;;;;;;14.32;4.43;;;20.50;99.90;;;;;;7396869;19;20025;-82
2022/08/29 08:14:02;;;;;;;13.15;4.50;;;20.80;99.90;;;;;;7398644;19;20546;-83
2022/08/29 08:16:29;;;;;;;13.70;4.32;;;21.30;99.90;;;;;;7398466;19;20019;-82
2022/08/29 08:18:56;;;;;;;10.30;3.60;;;21.20;99.90;;;;;;7397002;19;20547;-82
2022/08/29 08:21:23;;;;;;;14.07;3.75;;;21.10;99.90;;;;;;7395432;19;20018;-82
2022/08/29 08:23:49;;;;;;;15.40;4.03;;;21.00;99.90;;;;;;7395557;19;20014;-82
2022/08/29 08:26:16;;;;;;;13.88;3.75;;;21.00;99.90;;;;;;7395929;19;20022;-83
2022/08/29 08:28:42;;;;;;;15.15;3.97;;;21.00;99.90;;;;;;7391993;19;20018;-82
2022/08/29 08:31:10;;;;;;;13.43;4.10;;;20.90;99.90;;;;;;7395448;19;20014;-82
2022/08/29 08:33:37;;;;;;;9.52;3.85;;;20.90;99.90;;;;;;7394373;19;20015;-82
2022/08/29 08:36:11;;;;;;;11.48;3.42;;;21.00;99.90;;;;;;7397345;19;20014;-82
2022/08/29 08:38:36;;;;;;;16.98;4.10;;;21.10;99.90;;;;;;7397005;19;20354;-82
2022/08/29 08:41:43;;;;;;;14.60;4.10;;;21.00;99.90;;;;;;7394279;19;20497;-82
2022/08/29 08:44:48;;;;;;;14.80;3.90;;;20.80;99.90;;;;;;7397133;19;20010;-83
2022/08/29 08:47:22;;;;;;;15.95;4.40;;;20.70;99.90;;;;;;7394411;19;20015;-82
2022/08/29 08:50:04;;;;;;;11.90;3.95;;;20.70;99.90;;;;;;7392749;19;20011;-82
2022/08/29 08:52:42;;;;;;;19.70;4.18;;;20.70;99.90;;;;;;7393600;19;20031;-83
2022/08/29 08:55:21;;;;;;;11.30;3.83;;;20.70;99.90;;;;;;7390325;19;20014;-83
2022/08/29 08:58:16;;;;;;;16.95;4.65;;;20.70;99.90;;;;;;7387738;19;20026;-82
2022/08/29 09:01:15;;;;;;;11.68;3.42;;;20.80;99.90;;;;;;7392053;19;20018;-82
2022/08/29 09:03:52;;;;;;;9.77;3.38;;;20.80;99.90;;;;;;7395197;19;20078;-82
2022/08/29 09:06:40;;;;;;;8.98;3.28;;;20.80;99.90;;;;;;7392597;19;20018;-82
2022/08/29 09:09:20;;;;;;;12.20;3.65;;;20.80;99.90;;;;;;7393041;19;20010;-82
2022/08/29 09:12:07;;;;;;;15.25;3.80;;;20.90;99.90;;;;;;7394771;19;20011;-82
2022/08/29 09:15:11;;;;;;;9.02;3.30;;;21.00;99.90;;;;;;7393573;19;20038;-82
2022/08/29 09:17:52;;;;;;;;;;;20.90;99.90;;;;;;7397852;19;20022;-82
2022/08/29 09:20:22;;;;;;;11.32;3.58;;;20.90;99.90;;;;;;7390649;19;19926;-82
2022/08/29 09:23:17;;;;;;;15.15;3.90;;;20.90;99.90;;;;;;7396101;19;20010;-82
2022/08/29 09:25:43;;;;;;;13.40;3.75;;;20.90;99.90;;;;;;7394369;19;20395;-82
2022/08/29 09:28:09;;;;;;;13.93;3.67;;;20.90;99.90;;;;;;7392198;19;20015;-82
2022/08/29 09:30:38;;;;;;;13.35;3.20;;;20.90;99.90;;;;;;7391925;19;20021;-82
2022/08/29 09:33:15;;;;;;;12.18;3.47;;;21.00;99.90;;;;;;7394901;19;20023;-83
2022/08/29 09:35:54;;;;;;;11.88;3.50;;;21.00;99.90;;;;;;7389924;19;20011;-89
2022/08/29 09:38:24;;;;;;;12.68;3.80;;;21.00;99.90;;;;;;7390121;19;20102;-83
2022/08/29 09:40:57;;;;;;;12.30;3.60;;;21.10;99.90;;;;;;7386141;19;20019;-82
2022/08/29 09:43:43;;;;;;;15.57;4.10;;;21.20;99.90;;;;;;7393093;19;20015;-86
2022/08/29 09:46:25;;;;;;;12.73;3.53;;;21.20;99.90;;;;;;7393525;19;20014;-88
2022/08/29 09:49:15;;;;;;;12.90;3.55;;;21.30;99.90;;;;;;7389421;19;20509;-82
2022/08/29 09:51:47;;;;;;;15.05;3.38;;;21.30;99.90;;;;;;7391936;19;20015;-84
2022/08/29 09:54:26;;;;;;;9.18;3.05;;;21.40;99.90;;;;;;7388984;19;20015;-84
2022/08/29 09:57:17;;;;;;;11.25;3.25;;;21.40;99.90;;;;;;7391066;19;20482;-84
2022/08/29 09:59:46;;;;;;;13.38;3.25;;;21.50;99.90;;;;;;7393983;19;20018;-86
2022/08/29 10:02:20;;;;;;;8.43;3.10;;;21.50;99.90;;;;;;7392275;19;20422;-85
2022/08/29 10:05:00;;;;;;;9.30;3.10;;;21.60;99.90;;;;;;7392679;19;20572;-84
2022/08/29 10:07:29;;;;;;;11.60;3.63;;;21.70;99.90;;;;;;7391398;19;20023;-84
2022/08/29 10:10:06;;;;;;;8.95;2.83;;;21.80;99.90;;;;;;7394139;19;20011;-85
2022/08/29 10:13:04;;;;;;;11.63;3.03;;;21.80;99.90;;;;;;7389377;19;20033;-84
2022/08/29 10:15:37;;;;;;;11.40;3.15;;;21.80;99.90;;;;;;7388892;19;20038;-83
2022/08/29 10:18:26;;;;;;;7.18;3.05;;;21.80;99.90;;;;;;7393192;19;20562;-84
2022/08/29 10:21:11;;;;;;;10.18;3.10;;;21.80;99.90;;;;;;7394426;19;20025;-83
2022/08/29 10:23:48;;;;;;;12.45;3.30;;;21.80;99.90;;;;;;7395971;19;20026;-84
2022/08/29 10:26:43;;;;;;;8.93;2.80;;;21.80;99.90;;;;;;7398301;19;20090;-82
2022/08/29 10:29:28;;;;;;;9.43;3.05;;;22.00;99.90;;;;;;7396996;19;20080;-83
2022/08/29 10:32:06;;;;;;;11.20;3.03;;;22.00;99.90;;;;;;7395980;19;20100;-82
2022/08/29 10:34:40;;;;;;;9.38;2.97;;;21.90;99.90;;;;;;7396989;19;20011;-83
2022/08/29 10:37:21;;;;;;;11.38;3.15;;;21.90;99.90;;;;;;7400545;19;20035;-84
2022/08/29 10:40:21;;;;;;;10.57;3.00;;;21.70;99.90;;;;;;7396943;19;20355;-81
2022/08/29 10:42:51;;;;;;;8.48;2.78;;;21.70;99.90;;;;;;7397641;19;20050;-82
2022/08/29 10:45:24;;;;;;;10.43;2.60;;;21.60;99.90;;;;;;7394231;19;20033;-82
2022/08/29 10:48:12;;;;;;;13.13;3.13;;;21.60;99.90;;;;;;7400147;19;20014;-83
2022/08/29 10:50:57;;;;;;;10.95;2.65;;;21.60;99.90;;;;;;7395891;19;20022;-83
2022/08/29 10:53:56;;;;;;;10.73;2.95;;;21.60;99.90;;;;;;7398326;19;20007;-84
2022/08/29 10:56:40;;;;;;;8.13;2.80;;;21.60;99.90;;;;;;7397215;19;20082;-84
2022/08/29 10:59:06;;;;;;;9.57;2.53;;;21.60;99.90;;;;;;7394696;19;20044;-84
2022/08/29 11:01:49;;;;;;;8.68;2.78;;;21.60;99.90;;;;;;7400712;19;20015;-83
2022/08/29 11:04:32;;;;;;;11.38;2.58;;;21.60;99.90;;;;;;7396260;19;20014;-84
2022/08/29 11:07:37;;;;;;;6.78;2.42;;;21.60;99.90;;;;;;7396623;19;20062;-83
2022/08/29 11:10:16;;;;;;;7.28;2.63;;;21.60;99.90;;;;;;7394054;19;20010;-83
2022/08/29 11:12:45;;;;;;;7.40;2.50;;;21.70;99.90;;;;;;7395650;19;20013;-83
2022/08/29 11:15:41;;;;;;;8.43;2.55;;;21.70;99.90;;;;;;7397178;19;20480;-83
2022/08/29 11:18:08;;;;;;;7.32;2.70;;;21.80;99.90;;;;;;7396039;19;20373;-84
2022/08/29 11:20:42;;;;;;;9.98;2.60;;;21.80;99.90;;;;;;7392428;19;20502;-83
2022/08/29 11:23:31;;;;;;;6.93;2.58;;;21.80;99.90;;;;;;7395714;19;20010;-84
2022/08/29 11:26:08;;;;;;;8.38;2.70;;;21.90;99.90;;;;;;7396063;19;20019;-84
2022/08/29 11:28:49;;;;;;;7.30;2.20;;;21.80;99.90;;;;;;7397785;19;20014;-83
2022/08/29 11:31:39;;;;;;;6.60;2.50;;;21.80;99.90;;;;;;7395774;19;20559;-83
2022/08/29 11:34:54;;;;;;;6.72;2.58;;;21.80;99.90;;;;;;7398311;19;20037;-84
2022/08/29 11:37:58;;;;;;;8.95;2.45;;;21.80;99.90;;;;;;7392546;19;20015;-84
2022/08/29 11:40:47;;;;;;;6.78;2.40;;;21.90;99.90;;;;;;7394646;19;20015;-84
2022/08/29 11:43:17;;;;;;;7.60;2.50;;;22.00;99.90;;;;;;7397751;19;20039;-83
2022/08/29 11:45:56;;;;;;;10.38;2.60;;;22.10;99.90;;;;;;7396004;19;20018;-83
2022/08/29 11:48:51;;;;;;;7.93;2.42;;;22.20;99.90;;;;;;7395452;19;20041;-84
2022/08/29 11:51:36;;;;;;;10.40;2.58;;;22.30;99.90;;;;;;7392750;19;20475;-83
2022/08/29 11:54:23;;;;;;;9.00;2.67;;;22.40;99.90;;;;;;7395129;19;20015;-83
2022/08/29 11:56:59;;;;;;;8.73;2.45;;;22.40;99.90;;;;;;7394153;19;20042;-84
2022/08/29 11:59:53;;;;;;;10.25;2.38;;;22.50;99.90;;;;;;7392965;19;20014;-84
2022/08/29 12:02:31;;;;;;;8.20;2.42;;;22.50;99.90;;;;;;7398545;19;20006;-84
2022/08/29 12:05:19;;;;;;;9.50;2.50;;;22.50;99.90;;;;;;7395023;19;20042;-83
2022/08/29 12:07:50;;;;;;;8.82;2.75;;;22.60;99.90;;;;;;7391951;19;20015;-84
2022/08/29 12:10:22;;;;;;;6.05;2.25;;;22.70;99.90;;;;;;7394911;19;20603;-83
2022/08/29 12:12:56;;;;;;;8.02;2.20;;;22.70;99.90;;;;;;7393909;19;20011;-83
2022/08/29 12:15:39;;;;;;;7.32;2.42;;;22.80;99.90;;;;;;7397414;19;20035;-84
2022/08/29 12:18:08;;;;;;;7.45;2.47;;;22.90;99.90;;;;;;7393366;19;20073;-83
2022/08/29 12:20:40;;;;;;;7.63;2.40;;;22.80;99.90;;;;;;7393801;19;20547;-83
2022/08/29 12:23:26;;;;;;;7.80;2.47;;;22.70;99.90;;;;;;7397241;19;20014;-83
2022/08/29 12:26:04;;;;;;;6.70;2.28;;;22.70;99.90;;;;;;7393418;19;20010;-83
2022/08/29 12:28:42;;;;;;;7.20;2.22;;;22.60;99.90;;;;;;7395192;19;20018;-83
2022/08/29 12:31:21;;;;;;;7.72;2.30;;;22.60;99.90;;;;;;7393132;19;20018;-81
2022/08/29 12:34:05;;;;;;;6.22;2.38;;;22.60;99.90;;;;;;7391761;19;20053;-81
2022/08/29 12:37:13;;;;;;;8.07;2.60;;;22.70;99.90;;;;;;7394951;19;20464;-82
2022/08/29 12:39:44;;;;;;;5.95;2.25;;;22.70;99.90;;;;;;7395372;19;20018;-83
2022/08/29 12:42:48;;;;;;;8.85;2.47;;;22.70;99.90;;;;;;7397118;19;20523;-87
2022/08/29 12:45:19;;;;;;;;;;;22.30;99.90;;;;;;7392990;19;20031;-85
2022/08/29 12:47:53;;;;;;;6.65;2.10;;;22.10;99.90;;;;;;7391403;19;19918;-86
2022/08/29 12:50:35;;;;;;;7.80;2.08;;;22.10;99.90;;;;;;7392407;19;20463;-87
2022/08/29 12:53:29;;;;;;;6.57;2.20;;;22.10;99.90;;;;;;7394610;19;20011;-84
2022/08/29 12:56:12;;;;;;;8.50;2.40;;;22.00;99.90;;;;;;7393013;19;20018;-86
2022/08/29 12:58:41;;;;;;;7.50;2.20;;;22.10;99.90;;;;;;7396135;19;20487;-86
2022/08/29 13:01:23;;;;;;;5.93;1.83;;;22.00;99.90;;;;;;7393138;19;20014;-90
2022/08/29 13:04:01;;;;;;;8.73;2.42;;;22.10;99.90;;;;;;7391987;19;20019;-90
2022/08/29 13:06:28;;;;;;;8.30;2.38;;;21.90;99.90;;;;;;7394934;19;20010;-87
2022/08/29 13:08:54;;;;;;;7.15;2.00;;;22.10;99.90;;;;;;7391949;19;20022;-89
2022/08/29 13:11:24;;;;;;;6.80;2.50;;;22.00;99.90;;;;;;7394458;19;20018;-85